Time,TemperatureF,DewpointF,PressureIn,WindDirection,WindDirectionDegrees,WindSpeedMPH,WindSpeedGustMPH,Humidity,HourlyPrecipIn,Conditions,Clouds,dailyrainin,SoftwareType,DateUTC
2013-03-27 00:04:00,43.7,43.0,29.98,WNW,293,0.0,0.0,96,0.00,,,0.00,weatherlink.com 1.10,2013-03-27 07:04:00,
2013-03-27 00:19:00,43.6,43.0,29.97,WNW,293,0.0,0.0,96,0.00,,,0.00,weatherlink.com 1.10,2013-03-27 07:19:00,
2013-03-27 00:34:00,43.4,43.0,29.97,WNW,293,0.0,0.0,97,0.00,,,0.00,weatherlink.com 1.10,2013-03-27 07:34:00,
2013-03-27 00:49:00,43.6,43.0,29.97,WNW,293,0.0,0.0,97,0.00,,,0.00,weatherlink.com 1.10,2013-03-27 07:49:00,
2013-03-27 01:04:00,44.3,44.0,29.97,WNW,293,0.0,0.0,98,0.00,,,0.00,weatherlink.com 1.10,2013-03-27 08:04:00,
2013-03-27 01:19:00,44.6,44.0,29.97,WNW,293,0.0,0.0,98,0.00,,,0.00,weatherlink.com 1.10,2013-03-27 08:19:00,
2013-03-27 01:34:00,44.7,44.0,29.97,WNW,293,0.0,0.0,97,0.00,,,0.00,weatherlink.com 1.10,2013-03-27 08:34:00,
2013-03-27 01:49:00,44.7,44.0,29.97,WNW,293,0.0,0.0,97,0.00,,,0.00,weatherlink.com 1.10,2013-03-27 08:49:00,
2013-03-27 02:04:00,45.0,44.0,29.96,WNW,293,0.0,0.0,97,0.00,,,0.00,weatherlink.com 1.10,2013-03-27 09:04:00,
2013-03-27 02:19:00,45.0,44.0,29.96,WNW,293,0.0,1.0,96,0.00,,,0.00,weatherlink.com 1.10,2013-03-27 09:19:00,
2013-03-27 02:34:00,45.0,44.0,29.96,WNW,293,0.0,0.0,96,0.00,,,0.00,weatherlink.com 1.10,2013-03-27 09:34:00,
2013-03-27 02:49:00,45.2,44.0,29.95,WNW,293,0.0,0.0,96,0.00,,,0.00,weatherlink.com 1.10,2013-03-27 09:49:00,
2013-03-27 03:04:00,45.4,44.0,29.96,WNW,293,0.0,1.0,96,0.00,,,0.00,weatherlink.com 1.10,2013-03-27 10:04:00,
2013-03-27 03:19:00,45.4,44.0,29.95,West,280,0.0,2.0,96,0.00,,,0.00,weatherlink.com 1.10,2013-03-27 10:19:00,
2013-03-27 03:34:00,45.6,44.0,29.95,West,280,0.0,1.0,95,0.00,,,0.00,weatherlink.com 1.10,2013-03-27 10:34:00,
2013-03-27 03:49:00,45.5,44.0,29.96,West,277,1.0,2.0,95,0.00,,,0.00,weatherlink.com 1.10,2013-03-27 10:49:00,
2013-03-27 04:04:00,45.3,44.0,29.96,West,271,0.0,2.0,95,0.00,,,0.00,weatherlink.com 1.10,2013-03-27 11:04:00,
2013-03-27 04:19:00,45.2,44.0,29.95,WSW,248,1.0,2.0,95,0.00,,,0.00,weatherlink.com 1.10,2013-03-27 11:19:00,
2013-03-27 04:34:00,45.2,44.0,29.95,WSW,248,0.0,1.0,96,0.00,,,0.00,weatherlink.com 1.10,2013-03-27 11:34:00,
2013-03-27 04:49:00,45.6,45.0,29.95,WSW,248,0.0,0.0,97,0.00,,,0.00,weatherlink.com 1.10,2013-03-27 11:49:00,
2013-03-27 05:04:00,45.9,45.0,29.95,WSW,248,0.0,0.0,97,0.00,,,0.00,weatherlink.com 1.10,2013-03-27 12:04:00,
2013-03-27 05:19:00,46.0,45.0,29.95,WSW,248,0.0,0.0,96,0.00,,,0.00,weatherlink.com 1.10,2013-03-27 12:19:00,
2013-03-27 05:34:00,46.3,45.0,29.95,WSW,248,0.0,0.0,96,0.00,,,0.00,weatherlink.com 1.10,2013-03-27 12:34:00,
2013-03-27 05:49:00,46.3,45.0,29.95,WSW,248,0.0,0.0,96,0.00,,,0.00,weatherlink.com 1.10,2013-03-27 12:49:00,
2013-03-27 06:04:00,46.1,45.0,29.95,WSW,248,0.0,0.0,95,0.00,,,0.00,weatherlink.com 1.10,2013-03-27 13:04:00,
2013-03-27 06:19:00,45.8,45.0,29.95,WSW,248,0.0,0.0,95,0.00,,,0.00,weatherlink.com 1.10,2013-03-27 13:19:00,
2013-03-27 06:34:00,45.7,45.0,29.95,WSW,248,0.0,0.0,96,0.00,,,0.00,weatherlink.com 1.10,2013-03-27 13:34:00,
2013-03-27 06:49:00,45.5,45.0,29.95,WSW,248,0.0,0.0,96,0.00,,,0.00,weatherlink.com 1.10,2013-03-27 13:49:00,
2013-03-27 07:04:00,45.1,44.0,29.96,WSW,248,0.0,1.0,96,0.00,,,0.00,weatherlink.com 1.10,2013-03-27 14:04:00,
2013-03-27 07:19:00,45.2,44.0,29.96,WSW,248,0.0,1.0,97,0.00,,,0.00,weatherlink.com 1.10,2013-03-27 14:19:00,
2013-03-27 07:34:00,45.4,45.0,29.96,WSW,248,0.0,1.0,97,0.00,,,0.00,weatherlink.com 1.10,2013-03-27 14:34:00,
2013-03-27 07:49:00,45.7,45.0,29.97,WSW,248,0.0,1.0,98,0.00,,,0.00,weatherlink.com 1.10,2013-03-27 14:49:00,
2013-03-27 08:04:00,46.1,46.0,29.97,WSW,248,1.0,1.0,98,0.00,,,0.00,weatherlink.com 1.10,2013-03-27 15:04:00,
2013-03-27 08:19:00,46.3,46.0,29.97,WSW,248,0.0,1.0,98,0.00,,,0.00,weatherlink.com 1.10,2013-03-27 15:19:00,
2013-03-27 08:34:00,46.3,46.0,29.97,WSW,248,0.0,2.0,97,0.00,,,0.00,weatherlink.com 1.10,2013-03-27 15:34:00,
2013-03-27 08:49:00,46.6,46.0,29.98,WSW,248,1.0,2.0,98,0.00,,,0.00,weatherlink.com 1.10,2013-03-27 15:49:00,
2013-03-27 09:04:00,47.4,47.0,29.98,WSW,248,0.0,2.0,97,0.00,,,0.00,weatherlink.com 1.10,2013-03-27 16:04:00,
2013-03-27 09:19:00,47.7,47.0,29.98,SSW,199,0.0,3.0,96,0.00,,,0.00,weatherlink.com 1.10,2013-03-27 16:19:00,
2013-03-27 09:34:00,48.0,47.0,29.98,SSW,199,1.0,2.0,96,0.00,,,0.00,weatherlink.com 1.10,2013-03-27 16:34:00,
2013-03-27 09:49:00,48.2,47.0,29.98,South,190,1.0,3.0,96,0.00,,,0.00,weatherlink.com 1.10,2013-03-27 16:49:00,
2013-03-27 10:05:00,49.2,48.0,29.98,SW,217,1.0,2.0,97,0.00,,,0.00,weatherlink.com 1.10,2013-03-27 17:05:00,
2013-03-27 10:20:00,49.2,48.0,29.99,WSW,250,1.0,3.0,96,0.00,,,0.00,weatherlink.com 1.10,2013-03-27 17:20:00,
2013-03-27 10:35:00,50.3,49.0,29.99,SSW,194,2.0,3.0,96,0.00,,,0.00,weatherlink.com 1.10,2013-03-27 17:35:00,
2013-03-27 10:50:00,51.0,50.0,30.00,SSW,209,1.0,3.0,95,0.00,,,0.00,weatherlink.com 1.10,2013-03-27 17:50:00,
2013-03-27 11:05:00,52.4,51.0,29.99,SSW,199,1.0,3.0,93,0.00,,,0.00,weatherlink.com 1.10,2013-03-27 18:05:00,
2013-03-27 11:20:00,52.3,51.0,30.00,South,182,2.0,4.0,94,0.00,,,0.00,weatherlink.com 1.10,2013-03-27 18:20:00,
2013-03-27 11:35:00,52.2,51.0,30.00,SSW,204,1.0,4.0,95,0.00,,,0.00,weatherlink.com 1.10,2013-03-27 18:35:00,
2013-03-27 11:50:00,52.4,51.0,30.00,SSW,195,1.0,5.0,95,0.00,,,0.00,weatherlink.com 1.10,2013-03-27 18:50:00,
2013-03-27 12:05:00,52.3,51.0,30.00,South,180,3.0,5.0,96,0.00,,,0.00,weatherlink.com 1.10,2013-03-27 19:05:00,
2013-03-27 12:20:00,52.9,52.0,30.00,South,191,0.0,4.0,97,0.00,,,0.00,weatherlink.com 1.10,2013-03-27 19:20:00,
2013-03-27 12:35:00,52.8,52.0,30.00,SSW,193,3.0,7.0,95,0.00,,,0.00,weatherlink.com 1.10,2013-03-27 19:35:00,
2013-03-27 12:50:00,53.1,52.0,30.00,South,186,2.0,6.0,95,0.00,,,0.00,weatherlink.com 1.10,2013-03-27 19:50:00,
2013-03-27 13:05:00,52.7,51.0,30.00,South,169,2.0,5.0,95,0.00,,,0.00,weatherlink.com 1.10,2013-03-27 20:05:00,
2013-03-27 13:20:00,53.1,52.0,30.00,WSW,243,3.0,6.0,95,0.00,,,0.00,weatherlink.com 1.10,2013-03-27 20:20:00,
2013-03-27 13:35:00,52.6,51.0,30.00,SSW,199,4.0,8.0,95,0.00,,,0.00,weatherlink.com 1.10,2013-03-27 20:35:00,
2013-03-27 13:50:00,53.3,53.0,30.00,South,180,2.0,5.0,97,0.00,,,0.00,weatherlink.com 1.10,2013-03-27 20:50:00,
2013-03-27 14:05:00,53.9,52.0,30.00,South,169,4.0,6.0,94,0.00,,,0.00,weatherlink.com 1.10,2013-03-27 21:05:00,
2013-03-27 14:20:00,54.8,52.0,29.99,SSW,199,3.0,9.0,89,0.00,,,0.00,weatherlink.com 1.10,2013-03-27 21:20:00,
2013-03-27 14:35:00,55.1,52.0,29.99,South,171,5.0,8.0,88,0.00,,,0.00,weatherlink.com 1.10,2013-03-27 21:35:00,
2013-03-27 14:50:00,53.7,51.0,29.99,South,174,5.0,7.0,90,0.00,,,0.00,weatherlink.com 1.10,2013-03-27 21:50:00,
2013-03-27 15:05:00,54.0,51.0,29.99,SSW,213,1.0,7.0,90,0.00,,,0.00,weatherlink.com 1.10,2013-03-27 22:05:00,
2013-03-27 15:20:00,55.1,52.0,29.99,South,177,2.0,5.0,89,0.00,,,0.00,weatherlink.com 1.10,2013-03-27 22:20:00,
2013-03-27 15:35:00,56.1,52.0,29.99,South,175,3.0,9.0,86,0.00,,,0.00,weatherlink.com 1.10,2013-03-27 22:35:00,
2013-03-27 15:50:00,55.7,51.0,29.99,SSW,199,3.0,10.0,85,0.00,,,0.00,weatherlink.com 1.10,2013-03-27 22:50:00,
2013-03-27 16:05:00,54.2,51.0,29.99,South,171,3.0,8.0,89,0.00,,,0.00,weatherlink.com 1.10,2013-03-27 23:05:00,
2013-03-27 16:20:00,54.4,51.0,29.99,South,185,2.0,9.0,87,0.00,,,0.00,weatherlink.com 1.10,2013-03-27 23:20:00,
2013-03-27 16:35:00,54.5,51.0,29.98,South,188,3.0,7.0,87,0.00,,,0.00,weatherlink.com 1.10,2013-03-27 23:35:00,
2013-03-27 16:50:00,54.4,50.0,29.99,SSW,199,4.0,7.0,86,0.00,,,0.00,weatherlink.com 1.10,2013-03-27 23:50:00,
2013-03-27 17:05:00,53.9,50.0,29.98,South,188,2.0,6.0,86,0.00,,,0.00,weatherlink.com 1.10,2013-03-28 00:05:00,
2013-03-27 17:20:00,53.5,50.0,29.99,SSW,199,3.0,7.0,87,0.00,,,0.00,weatherlink.com 1.10,2013-03-28 00:20:00,
2013-03-27 17:35:00,53.0,49.0,29.99,South,184,3.0,6.0,87,0.00,,,0.00,weatherlink.com 1.10,2013-03-28 00:35:00,
2013-03-27 17:50:00,52.6,49.0,29.99,South,177,2.0,5.0,87,0.00,,,0.00,weatherlink.com 1.10,2013-03-28 00:50:00,
2013-03-27 18:05:00,52.4,49.0,29.99,South,186,5.0,5.0,88,0.00,,,0.00,weatherlink.com 1.10,2013-03-28 01:05:00,
2013-03-27 18:20:00,52.1,49.0,29.99,South,169,4.0,5.0,89,0.00,,,0.00,weatherlink.com 1.10,2013-03-28 01:20:00,
2013-03-27 18:35:00,51.8,49.0,29.99,South,180,3.0,4.0,90,0.00,,,0.00,weatherlink.com 1.10,2013-03-28 01:35:00,
2013-03-27 18:50:00,51.5,49.0,29.99,South,190,1.0,4.0,91,0.00,,,0.00,weatherlink.com 1.10,2013-03-28 01:50:00,
2013-03-27 19:05:00,51.2,49.0,29.99,SW,217,0.0,2.0,92,0.00,,,0.00,weatherlink.com 1.10,2013-03-28 02:05:00,
2013-03-27 19:20:00,50.8,49.0,30.00,SW,217,0.0,1.0,92,0.00,,,0.00,weatherlink.com 1.10,2013-03-28 02:20:00,
2013-03-27 19:35:00,50.6,49.0,29.99,SW,217,0.0,1.0,93,0.00,,,0.00,weatherlink.com 1.10,2013-03-28 02:35:00,
2013-03-27 19:50:00,50.3,49.0,29.99,SW,217,0.0,1.0,94,0.00,,,0.00,weatherlink.com 1.10,2013-03-28 02:50:00,
2013-03-27 20:05:00,49.5,48.0,30.00,SW,217,0.0,1.0,94,0.00,,,0.00,weatherlink.com 1.10,2013-03-28 03:05:00,
2013-03-27 20:20:00,48.6,48.0,30.00,SW,217,0.0,1.0,96,0.00,,,0.00,weatherlink.com 1.10,2013-03-28 03:20:00,
2013-03-27 20:35:00,48.3,48.0,30.00,SW,217,0.0,1.0,97,0.00,,,0.00,weatherlink.com 1.10,2013-03-28 03:35:00,
2013-03-27 20:50:00,48.2,47.0,30.00,SW,217,0.0,0.0,97,0.00,,,0.00,weatherlink.com 1.10,2013-03-28 03:50:00,
2013-03-27 21:05:00,48.1,48.0,30.01,SW,217,0.0,0.0,98,0.00,,,0.00,weatherlink.com 1.10,2013-03-28 04:05:00,
2013-03-27 21:20:00,48.2,48.0,30.01,SW,217,0.0,1.0,98,0.00,,,0.00,weatherlink.com 1.10,2013-03-28 04:20:00,
2013-03-27 21:35:00,48.0,48.0,30.01,SW,217,0.0,1.0,98,0.00,,,0.00,weatherlink.com 1.10,2013-03-28 04:35:00,
2013-03-27 21:50:00,48.0,48.0,30.01,SW,217,0.0,0.0,98,0.00,,,0.00,weatherlink.com 1.10,2013-03-28 04:50:00,
2013-03-27 22:05:00,48.1,48.0,30.02,SW,217,0.0,0.0,98,0.00,,,0.00,weatherlink.com 1.10,2013-03-28 05:05:00,
2013-03-27 22:20:00,47.9,48.0,30.02,SW,217,0.0,0.0,99,0.00,,,0.00,weatherlink.com 1.10,2013-03-28 05:20:00,
2013-03-27 22:37:00,47.9,48.0,30.02,SW,217,0.0,0.0,99,0.00,,,0.00,weatherlink.com 1.10,2013-03-28 05:37:00,
2013-03-27 23:21:00,48.1,48.0,30.02,SW,217,0.0,0.0,99,0.00,,,0.00,weatherlink.com 1.10,2013-03-28 06:21:00,
2013-03-27 23:51:00,47.8,48.0,30.02,SW,217,0.0,1.0,99,0.00,,,0.00,weatherlink.com 1.10,2013-03-28 06:51:00,